sensor_id;sensor_type;location;lat;lon;timestamp;P1;durP1;ratioP1;P2;durP2;ratioP2
70414;SDS011;57837;52.064;113.478;2022-11-02T00:02:50;80.13;;;36.88;;
70414;SDS011;57837;52.064;113.478;2022-11-02T00:05:53;123.50;;;45.20;;
70414;SDS011;57837;52.064;113.478;2022-11-02T00:08:57;57.63;;;26.47;;
70414;SDS011;57837;52.064;113.478;2022-11-02T00:12:00;31.98;;;23.13;;
70414;SDS011;57837;52.064;113.478;2022-11-02T00:15:04;44.78;;;22.30;;
70414;SDS011;57837;52.064;113.478;2022-11-02T00:18:08;49.13;;;23.23;;
70414;SDS011;57837;52.064;113.478;2022-11-02T00:21:14;47.03;;;24.70;;
70414;SDS011;57837;52.064;113.478;2022-11-02T00:24:19;50.47;;;19.10;;
70414;SDS011;57837;52.064;113.478;2022-11-02T00:27:24;50.30;;;25.30;;
70414;SDS011;57837;52.064;113.478;2022-11-02T00:30:27;52.93;;;14.43;;
70414;SDS011;57837;52.064;113.478;2022-11-02T00:33:31;70.65;;;29.52;;
70414;SDS011;57837;52.064;113.478;2022-11-02T00:36:34;79.85;;;31.42;;
70414;SDS011;57837;52.064;113.478;2022-11-02T00:39:38;50.37;;;28.40;;
70414;SDS011;57837;52.064;113.478;2022-11-02T00:42:41;62.08;;;29.25;;
70414;SDS011;57837;52.064;113.478;2022-11-02T00:45:45;44.38;;;23.65;;
70414;SDS011;57837;52.064;113.478;2022-11-02T00:48:49;72.07;;;34.75;;
70414;SDS011;57837;52.064;113.478;2022-11-02T00:51:52;60.72;;;34.83;;
70414;SDS011;57837;52.064;113.478;2022-11-02T00:54:55;58.67;;;27.50;;
70414;SDS011;57837;52.064;113.478;2022-11-02T00:57:58;112.53;;;42.83;;
70414;SDS011;57837;52.064;113.478;2022-11-02T01:01:05;71.43;;;32.83;;
70414;SDS011;57837;52.064;113.478;2022-11-02T01:04:10;45.38;;;29.20;;
70414;SDS011;57837;52.064;113.478;2022-11-02T01:07:13;134.88;;;48.58;;
70414;SDS011;57837;52.064;113.478;2022-11-02T01:10:16;60.83;;;23.37;;
70414;SDS011;57837;52.064;113.478;2022-11-02T01:13:20;166.98;;;59.38;;
70414;SDS011;57837;52.064;113.478;2022-11-02T01:16:24;86.82;;;40.85;;
70414;SDS011;57837;52.064;113.478;2022-11-02T01:19:27;75.68;;;34.15;;
70414;SDS011;57837;52.064;113.478;2022-11-02T01:22:30;121.45;;;51.65;;
70414;SDS011;57837;52.064;113.478;2022-11-02T01:25:34;101.53;;;42.72;;
70414;SDS011;57837;52.064;113.478;2022-11-02T01:28:37;160.30;;;60.40;;
70414;SDS011;57837;52.064;113.478;2022-11-02T01:31:42;199.67;;;70.03;;
70414;SDS011;57837;52.064;113.478;2022-11-02T01:34:45;106.50;;;39.53;;
70414;SDS011;57837;52.064;113.478;2022-11-02T01:37:49;88.60;;;37.13;;
70414;SDS011;57837;52.064;113.478;2022-11-02T01:40:52;65.07;;;32.20;;
70414;SDS011;57837;52.064;113.478;2022-11-02T01:43:56;99.00;;;38.20;;
70414;SDS011;57837;52.064;113.478;2022-11-02T01:50:23;58.95;;;27.23;;
70414;SDS011;57837;52.064;113.478;2022-11-02T01:53:29;127.70;;;50.10;;
70414;SDS011;57837;52.064;113.478;2022-11-02T01:56:33;72.47;;;29.08;;
70414;SDS011;57837;52.064;113.478;2022-11-02T01:59:41;152.10;;;53.35;;
70414;SDS011;57837;52.064;113.478;2022-11-02T02:05:59;75.47;;;28.50;;
70414;SDS011;57837;52.064;113.478;2022-11-02T02:09:09;51.72;;;22.70;;
70414;SDS011;57837;52.064;113.478;2022-11-02T02:12:16;76.20;;;27.40;;
70414;SDS011;57837;52.064;113.478;2022-11-02T02:15:23;59.00;;;24.58;;
70414;SDS011;57837;52.064;113.478;2022-11-02T02:18:33;88.93;;;33.85;;
70414;SDS011;57837;52.064;113.478;2022-11-02T02:31:31;82.28;;;30.38;;
70414;SDS011;57837;52.064;113.478;2022-11-02T02:34:53;68.57;;;23.23;;
70414;SDS011;57837;52.064;113.478;2022-11-02T02:38:07;53.80;;;20.40;;
70414;SDS011;57837;52.064;113.478;2022-11-02T02:41:38;57.38;;;21.63;;
70414;SDS011;57837;52.064;113.478;2022-11-02T02:44:50;70.67;;;29.60;;
70414;SDS011;57837;52.064;113.478;2022-11-02T02:48:19;95.00;;;36.45;;
70414;SDS011;57837;52.064;113.478;2022-11-02T02:51:28;74.85;;;27.60;;
70414;SDS011;57837;52.064;113.478;2022-11-02T02:54:35;62.05;;;25.55;;
70414;SDS011;57837;52.064;113.478;2022-11-02T02:57:43;70.22;;;28.90;;
70414;SDS011;57837;52.064;113.478;2022-11-02T03:00:49;78.28;;;27.67;;
70414;SDS011;57837;52.064;113.478;2022-11-02T03:03:56;63.97;;;26.23;;
70414;SDS011;57837;52.064;113.478;2022-11-02T03:06:59;62.17;;;23.57;;
70414;SDS011;57837;52.064;113.478;2022-11-02T03:13:44;60.15;;;24.40;;
70414;SDS011;57837;52.064;113.478;2022-11-02T03:17:02;68.30;;;27.20;;
70414;SDS011;57837;52.064;113.478;2022-11-02T03:23:37;50.38;;;19.58;;
70414;SDS011;57837;52.064;113.478;2022-11-02T03:26:52;51.97;;;20.92;;
70414;SDS011;57837;52.064;113.478;2022-11-02T03:33:08;51.28;;;19.42;;
70414;SDS011;57837;52.064;113.478;2022-11-02T03:36:22;56.08;;;21.65;;
70414;SDS011;57837;52.064;113.478;2022-11-02T03:42:42;57.58;;;21.50;;
70414;SDS011;57837;52.064;113.478;2022-11-02T03:45:48;59.13;;;21.33;;
70414;SDS011;57837;52.064;113.478;2022-11-02T03:48:57;62.00;;;22.90;;
70414;SDS011;57837;52.064;113.478;2022-11-02T03:52:13;78.13;;;28.52;;
70414;SDS011;57837;52.064;113.478;2022-11-02T03:55:45;88.45;;;30.88;;
70414;SDS011;57837;52.064;113.478;2022-11-02T03:58:49;59.00;;;24.65;;
70414;SDS011;57837;52.064;113.478;2022-11-02T04:01:52;61.60;;;23.55;;
70414;SDS011;57837;52.064;113.478;2022-11-02T04:04:57;54.78;;;22.75;;
70414;SDS011;57837;52.064;113.478;2022-11-02T04:08:01;48.95;;;19.23;;
70414;SDS011;57837;52.064;113.478;2022-11-02T04:11:29;55.10;;;22.87;;
70414;SDS011;57837;52.064;113.478;2022-11-02T04:14:52;77.47;;;27.52;;
70414;SDS011;57837;52.064;113.478;2022-11-02T04:17:56;58.78;;;21.88;;
70414;SDS011;57837;52.064;113.478;2022-11-02T04:21:22;54.07;;;20.87;;
70414;SDS011;57837;52.064;113.478;2022-11-02T04:24:25;61.08;;;23.08;;
70414;SDS011;57837;52.064;113.478;2022-11-02T04:27:48;52.72;;;20.30;;
70414;SDS011;57837;52.064;113.478;2022-11-02T04:31:02;39.47;;;12.57;;
70414;SDS011;57837;52.064;113.478;2022-11-02T04:34:11;28.10;;;11.90;;
70414;SDS011;57837;52.064;113.478;2022-11-02T04:37:15;46.05;;;16.50;;
70414;SDS011;57837;52.064;113.478;2022-11-02T04:40:37;42.70;;;13.52;;
70414;SDS011;57837;52.064;113.478;2022-11-02T04:43:41;36.33;;;12.40;;
70414;SDS011;57837;52.064;113.478;2022-11-02T04:46:50;35.10;;;13.75;;
70414;SDS011;57837;52.064;113.478;2022-11-02T04:49:58;35.63;;;13.25;;
70414;SDS011;57837;52.064;113.478;2022-11-02T04:53:03;45.63;;;16.63;;
70414;SDS011;57837;52.064;113.478;2022-11-02T04:56:12;40.08;;;14.30;;
70414;SDS011;57837;52.064;113.478;2022-11-02T04:59:17;43.85;;;16.52;;
70414;SDS011;57837;52.064;113.478;2022-11-02T05:02:22;24.52;;;9.57;;
70414;SDS011;57837;52.064;113.478;2022-11-02T05:05:26;32.28;;;11.88;;
70414;SDS011;57837;52.064;113.478;2022-11-02T05:08:32;29.38;;;9.98;;
70414;SDS011;57837;52.064;113.478;2022-11-02T05:11:38;33.55;;;10.52;;
70414;SDS011;57837;52.064;113.478;2022-11-02T05:14:41;14.57;;;6.53;;
70414;SDS011;57837;52.064;113.478;2022-11-02T05:17:46;9.70;;;3.45;;
70414;SDS011;57837;52.064;113.478;2022-11-02T05:20:58;21.67;;;8.43;;
70414;SDS011;57837;52.064;113.478;2022-11-02T05:24:04;24.83;;;9.15;;
70414;SDS011;57837;52.064;113.478;2022-11-02T05:27:09;24.90;;;10.35;;
70414;SDS011;57837;52.064;113.478;2022-11-02T05:30:13;27.50;;;8.98;;
70414;SDS011;57837;52.064;113.478;2022-11-02T05:33:18;28.15;;;9.70;;
70414;SDS011;57837;52.064;113.478;2022-11-02T05:36:22;19.33;;;8.70;;
70414;SDS011;57837;52.064;113.478;2022-11-02T05:39:26;20.48;;;8.80;;
70414;SDS011;57837;52.064;113.478;2022-11-02T05:42:31;18.88;;;7.97;;
70414;SDS011;57837;52.064;113.478;2022-11-02T05:45:36;23.95;;;9.15;;
70414;SDS011;57837;52.064;113.478;2022-11-02T05:48:40;17.65;;;6.30;;
70414;SDS011;57837;52.064;113.478;2022-11-02T05:51:43;23.02;;;7.95;;
70414;SDS011;57837;52.064;113.478;2022-11-02T05:54:47;13.88;;;5.00;;
70414;SDS011;57837;52.064;113.478;2022-11-02T05:57:51;11.47;;;5.30;;
70414;SDS011;57837;52.064;113.478;2022-11-02T06:01:03;8.68;;;4.05;;
70414;SDS011;57837;52.064;113.478;2022-11-02T06:04:08;14.65;;;4.68;;
70414;SDS011;57837;52.064;113.478;2022-11-02T06:07:12;12.80;;;5.03;;
70414;SDS011;57837;52.064;113.478;2022-11-02T06:10:16;9.13;;;4.37;;
70414;SDS011;57837;52.064;113.478;2022-11-02T06:13:20;12.35;;;4.82;;
70414;SDS011;57837;52.064;113.478;2022-11-02T06:16:24;8.13;;;4.32;;
70414;SDS011;57837;52.064;113.478;2022-11-02T06:19:27;20.63;;;4.88;;
70414;SDS011;57837;52.064;113.478;2022-11-02T06:22:40;12.23;;;5.20;;
70414;SDS011;57837;52.064;113.478;2022-11-02T06:25:50;9.70;;;3.65;;
70414;SDS011;57837;52.064;113.478;2022-11-02T06:28:55;20.75;;;7.82;;
70414;SDS011;57837;52.064;113.478;2022-11-02T06:31:59;18.13;;;6.40;;
70414;SDS011;57837;52.064;113.478;2022-11-02T06:35:02;14.65;;;5.32;;
70414;SDS011;57837;52.064;113.478;2022-11-02T06:38:06;10.07;;;3.80;;
70414;SDS011;57837;52.064;113.478;2022-11-02T06:41:10;10.35;;;4.28;;
70414;SDS011;57837;52.064;113.478;2022-11-02T06:44:13;24.50;;;9.77;;
70414;SDS011;57837;52.064;113.478;2022-11-02T06:47:17;26.10;;;9.32;;
70414;SDS011;57837;52.064;113.478;2022-11-02T06:50:21;13.55;;;6.00;;
70414;SDS011;57837;52.064;113.478;2022-11-02T06:53:26;14.13;;;6.03;;
70414;SDS011;57837;52.064;113.478;2022-11-02T06:56:30;21.50;;;7.47;;
70414;SDS011;57837;52.064;113.478;2022-11-02T06:59:34;14.80;;;6.03;;
70414;SDS011;57837;52.064;113.478;2022-11-02T07:02:38;13.23;;;6.22;;
70414;SDS011;57837;52.064;113.478;2022-11-02T07:05:46;15.82;;;6.20;;
70414;SDS011;57837;52.064;113.478;2022-11-02T07:08:53;15.90;;;5.60;;
70414;SDS011;57837;52.064;113.478;2022-11-02T07:11:57;16.00;;;5.68;;
70414;SDS011;57837;52.064;113.478;2022-11-02T07:15:01;14.38;;;5.30;;
70414;SDS011;57837;52.064;113.478;2022-11-02T07:18:04;15.50;;;6.00;;
70414;SDS011;57837;52.064;113.478;2022-11-02T07:21:08;13.23;;;5.85;;
70414;SDS011;57837;52.064;113.478;2022-11-02T07:24:13;8.85;;;5.05;;
70414;SDS011;57837;52.064;113.478;2022-11-02T07:27:17;11.43;;;3.90;;
70414;SDS011;57837;52.064;113.478;2022-11-02T07:30:22;9.93;;;3.73;;
70414;SDS011;57837;52.064;113.478;2022-11-02T07:33:25;12.25;;;3.83;;
70414;SDS011;57837;52.064;113.478;2022-11-02T07:36:29;10.38;;;5.35;;
70414;SDS011;57837;52.064;113.478;2022-11-02T07:39:33;12.68;;;5.30;;
70414;SDS011;57837;52.064;113.478;2022-11-02T07:42:43;12.77;;;4.80;;
70414;SDS011;57837;52.064;113.478;2022-11-02T07:45:51;12.13;;;4.15;;
70414;SDS011;57837;52.064;113.478;2022-11-02T07:48:55;16.27;;;5.25;;
70414;SDS011;57837;52.064;113.478;2022-11-02T07:51:59;14.00;;;4.83;;
70414;SDS011;57837;52.064;113.478;2022-11-02T07:55:02;21.88;;;5.72;;
70414;SDS011;57837;52.064;113.478;2022-11-02T07:58:08;21.40;;;5.82;;
70414;SDS011;57837;52.064;113.478;2022-11-02T08:01:15;23.35;;;6.45;;
70414;SDS011;57837;52.064;113.478;2022-11-02T08:04:19;16.10;;;5.40;;
70414;SDS011;57837;52.064;113.478;2022-11-02T08:07:27;21.42;;;6.78;;
70414;SDS011;57837;52.064;113.478;2022-11-02T08:10:31;35.00;;;11.88;;
70414;SDS011;57837;52.064;113.478;2022-11-02T08:13:41;49.78;;;12.43;;
70414;SDS011;57837;52.064;113.478;2022-11-02T08:16:44;26.87;;;9.90;;
70414;SDS011;57837;52.064;113.478;2022-11-02T08:19:49;33.47;;;10.10;;
70414;SDS011;57837;52.064;113.478;2022-11-02T08:22:53;28.45;;;9.90;;
70414;SDS011;57837;52.064;113.478;2022-11-02T08:25:57;24.80;;;9.27;;
70414;SDS011;57837;52.064;113.478;2022-11-02T08:29:02;27.10;;;8.93;;
70414;SDS011;57837;52.064;113.478;2022-11-02T08:32:06;26.83;;;8.95;;
70414;SDS011;57837;52.064;113.478;2022-11-02T08:35:10;37.30;;;10.70;;
70414;SDS011;57837;52.064;113.478;2022-11-02T08:38:14;34.13;;;10.20;;
70414;SDS011;57837;52.064;113.478;2022-11-02T08:41:18;36.83;;;12.52;;
70414;SDS011;57837;52.064;113.478;2022-11-02T08:44:22;37.75;;;11.48;;
70414;SDS011;57837;52.064;113.478;2022-11-02T08:47:26;48.30;;;13.68;;
70414;SDS011;57837;52.064;113.478;2022-11-02T08:50:30;54.77;;;19.10;;
70414;SDS011;57837;52.064;113.478;2022-11-02T08:53:34;42.95;;;15.35;;
70414;SDS011;57837;52.064;113.478;2022-11-02T08:56:37;56.80;;;22.77;;
70414;SDS011;57837;52.064;113.478;2022-11-02T08:59:41;91.47;;;36.40;;
70414;SDS011;57837;52.064;113.478;2022-11-02T09:02:56;67.70;;;25.25;;
70414;SDS011;57837;52.064;113.478;2022-11-02T09:06:04;86.50;;;28.95;;
70414;SDS011;57837;52.064;113.478;2022-11-02T09:09:07;94.05;;;34.15;;
70414;SDS011;57837;52.064;113.478;2022-11-02T09:12:11;104.63;;;37.97;;
70414;SDS011;57837;52.064;113.478;2022-11-02T09:15:15;96.40;;;33.85;;
70414;SDS011;57837;52.064;113.478;2022-11-02T09:18:19;95.70;;;33.72;;
70414;SDS011;57837;52.064;113.478;2022-11-02T09:21:22;94.37;;;34.33;;
70414;SDS011;57837;52.064;113.478;2022-11-02T09:24:26;109.57;;;40.22;;
70414;SDS011;57837;52.064;113.478;2022-11-02T09:27:29;123.63;;;45.83;;
70414;SDS011;57837;52.064;113.478;2022-11-02T09:30:33;119.07;;;40.17;;
70414;SDS011;57837;52.064;113.478;2022-11-02T09:33:38;115.95;;;37.63;;
70414;SDS011;57837;52.064;113.478;2022-11-02T09:36:42;106.45;;;40.40;;
70414;SDS011;57837;52.064;113.478;2022-11-02T09:39:46;102.72;;;41.15;;
70414;SDS011;57837;52.064;113.478;2022-11-02T09:42:56;145.27;;;49.22;;
70414;SDS011;57837;52.064;113.478;2022-11-02T09:46:39;136.93;;;46.03;;
70414;SDS011;57837;52.064;113.478;2022-11-02T09:49:41;145.82;;;47.95;;
70414;SDS011;57837;52.064;113.478;2022-11-02T09:52:46;145.57;;;50.63;;
70414;SDS011;57837;52.064;113.478;2022-11-02T09:55:58;119.22;;;42.13;;
70414;SDS011;57837;52.064;113.478;2022-11-02T09:59:24;126.70;;;46.28;;
70414;SDS011;57837;52.064;113.478;2022-11-02T10:06:12;134.57;;;47.58;;
70414;SDS011;57837;52.064;113.478;2022-11-02T10:09:26;136.88;;;48.00;;
70414;SDS011;57837;52.064;113.478;2022-11-02T10:12:53;153.50;;;53.15;;
70414;SDS011;57837;52.064;113.478;2022-11-02T10:16:19;232.02;;;76.57;;
70414;SDS011;57837;52.064;113.478;2022-11-02T10:19:38;232.10;;;86.68;;
70414;SDS011;57837;52.064;113.478;2022-11-02T10:22:42;166.30;;;59.35;;
70414;SDS011;57837;52.064;113.478;2022-11-02T10:25:47;204.60;;;76.70;;
70414;SDS011;57837;52.064;113.478;2022-11-02T10:29:02;218.70;;;82.35;;
70414;SDS011;57837;52.064;113.478;2022-11-02T10:32:20;200.02;;;77.88;;
70414;SDS011;57837;52.064;113.478;2022-11-02T10:39:16;178.63;;;66.80;;
70414;SDS011;57837;52.064;113.478;2022-11-02T10:45:54;230.77;;;85.15;;
70414;SDS011;57837;52.064;113.478;2022-11-02T10:49:08;233.00;;;88.88;;
70414;SDS011;57837;52.064;113.478;2022-11-02T10:52:21;224.25;;;81.85;;
70414;SDS011;57837;52.064;113.478;2022-11-02T10:59:19;218.67;;;80.30;;
70414;SDS011;57837;52.064;113.478;2022-11-02T11:02:27;184.90;;;68.45;;
70414;SDS011;57837;52.064;113.478;2022-11-02T11:05:30;136.07;;;51.83;;
70414;SDS011;57837;52.064;113.478;2022-11-02T11:08:42;141.10;;;53.20;;
70414;SDS011;57837;52.064;113.478;2022-11-02T11:12:05;165.73;;;60.47;;
70414;SDS011;57837;52.064;113.478;2022-11-02T11:15:24;137.02;;;53.58;;
70414;SDS011;57837;52.064;113.478;2022-11-02T11:18:50;180.65;;;64.88;;
70414;SDS011;57837;52.064;113.478;2022-11-02T11:22:29;233.10;;;91.90;;
70414;SDS011;57837;52.064;113.478;2022-11-02T11:25:42;325.50;;;117.03;;
70414;SDS011;57837;52.064;113.478;2022-11-02T11:28:55;283.45;;;104.75;;
70414;SDS011;57837;52.064;113.478;2022-11-02T11:32:00;368.23;;;137.60;;
70414;SDS011;57837;52.064;113.478;2022-11-02T11:35:05;224.00;;;82.95;;
70414;SDS011;57837;52.064;113.478;2022-11-02T11:38:18;182.73;;;63.45;;
70414;SDS011;57837;52.064;113.478;2022-11-02T11:41:24;125.63;;;43.87;;
70414;SDS011;57837;52.064;113.478;2022-11-02T11:44:29;144.27;;;48.75;;
70414;SDS011;57837;52.064;113.478;2022-11-02T11:47:36;156.10;;;49.95;;
70414;SDS011;57837;52.064;113.478;2022-11-02T11:50:47;146.65;;;52.15;;
70414;SDS011;57837;52.064;113.478;2022-11-02T11:57:32;167.55;;;54.35;;
70414;SDS011;57837;52.064;113.478;2022-11-02T12:00:36;165.73;;;56.45;;
70414;SDS011;57837;52.064;113.478;2022-11-02T12:04:12;138.83;;;49.27;;
70414;SDS011;57837;52.064;113.478;2022-11-02T12:07:17;135.95;;;47.90;;
70414;SDS011;57837;52.064;113.478;2022-11-02T12:27:03;153.25;;;52.28;;
70414;SDS011;57837;52.064;113.478;2022-11-02T12:30:22;149.57;;;52.72;;
70414;SDS011;57837;52.064;113.478;2022-11-02T12:44:19;165.35;;;61.05;;
70414;SDS011;57837;52.064;113.478;2022-11-02T12:47:54;113.67;;;41.73;;
70414;SDS011;57837;52.064;113.478;2022-11-02T12:51:23;139.55;;;44.25;;
70414;SDS011;57837;52.064;113.478;2022-11-02T12:54:40;149.38;;;49.05;;
70414;SDS011;57837;52.064;113.478;2022-11-02T12:57:47;219.65;;;73.30;;
70414;SDS011;57837;52.064;113.478;2022-11-02T13:01:34;208.98;;;63.75;;
70414;SDS011;57837;52.064;113.478;2022-11-02T13:04:34;188.15;;;62.90;;
70414;SDS011;57837;52.064;113.478;2022-11-02T13:07:48;215.65;;;69.65;;
70414;SDS011;57837;52.064;113.478;2022-11-02T13:11:01;163.33;;;53.17;;
70414;SDS011;57837;52.064;113.478;2022-11-02T13:14:10;147.02;;;47.30;;
70414;SDS011;57837;52.064;113.478;2022-11-02T13:20:57;122.33;;;38.60;;
70414;SDS011;57837;52.064;113.478;2022-11-02T13:24:04;128.75;;;43.65;;
70414;SDS011;57837;52.064;113.478;2022-11-02T13:27:23;117.43;;;40.35;;
70414;SDS011;57837;52.064;113.478;2022-11-02T13:30:39;102.07;;;35.65;;
70414;SDS011;57837;52.064;113.478;2022-11-02T13:33:49;117.00;;;41.35;;
70414;SDS011;57837;52.064;113.478;2022-11-02T13:36:57;108.00;;;40.22;;
70414;SDS011;57837;52.064;113.478;2022-11-02T13:40:11;102.40;;;37.03;;
70414;SDS011;57837;52.064;113.478;2022-11-02T13:43:47;60.83;;;23.97;;
70414;SDS011;57837;52.064;113.478;2022-11-02T13:50:20;154.70;;;56.47;;
70414;SDS011;57837;52.064;113.478;2022-11-02T13:53:28;152.70;;;55.07;;
70414;SDS011;57837;52.064;113.478;2022-11-02T13:56:38;169.15;;;57.25;;
70414;SDS011;57837;52.064;113.478;2022-11-02T13:59:43;130.25;;;47.45;;
70414;SDS011;57837;52.064;113.478;2022-11-02T14:02:46;161.82;;;54.85;;
70414;SDS011;57837;52.064;113.478;2022-11-02T14:05:55;182.23;;;59.38;;
70414;SDS011;57837;52.064;113.478;2022-11-02T14:09:02;216.57;;;78.65;;
70414;SDS011;57837;52.064;113.478;2022-11-02T14:18:26;300.92;;;107.72;;
70414;SDS011;57837;52.064;113.478;2022-11-02T14:21:40;328.85;;;115.32;;
70414;SDS011;57837;52.064;113.478;2022-11-02T14:27:52;240.40;;;80.20;;
70414;SDS011;57837;52.064;113.478;2022-11-02T14:44:19;229.52;;;78.00;;
70414;SDS011;57837;52.064;113.478;2022-11-02T14:47:32;490.43;;;156.13;;
70414;SDS011;57837;52.064;113.478;2022-11-02T14:50:39;417.70;;;153.52;;
70414;SDS011;57837;52.064;113.478;2022-11-02T14:53:43;354.90;;;127.07;;
70414;SDS011;57837;52.064;113.478;2022-11-02T15:00:19;367.38;;;127.32;;
70414;SDS011;57837;52.064;113.478;2022-11-02T15:06:27;333.65;;;123.95;;
70414;SDS011;57837;52.064;113.478;2022-11-02T15:16:21;374.27;;;122.25;;
70414;SDS011;57837;52.064;113.478;2022-11-02T15:22:53;261.45;;;86.18;;
70414;SDS011;57837;52.064;113.478;2022-11-02T15:25:59;326.70;;;112.57;;
70414;SDS011;57837;52.064;113.478;2022-11-02T15:32:28;202.88;;;69.18;;
70414;SDS011;57837;52.064;113.478;2022-11-02T15:35:36;177.50;;;63.55;;
70414;SDS011;57837;52.064;113.478;2022-11-02T15:38:41;150.20;;;54.17;;
70414;SDS011;57837;52.064;113.478;2022-11-02T15:42:00;150.80;;;55.95;;
70414;SDS011;57837;52.064;113.478;2022-11-02T15:45:19;90.68;;;34.92;;
70414;SDS011;57837;52.064;113.478;2022-11-02T15:48:58;88.75;;;35.70;;
70414;SDS011;57837;52.064;113.478;2022-11-02T16:01:25;307.70;;;108.50;;
70414;SDS011;57837;52.064;113.478;2022-11-02T16:04:30;216.80;;;85.30;;
70414;SDS011;57837;52.064;113.478;2022-11-02T16:07:35;297.27;;;106.15;;
70414;SDS011;57837;52.064;113.478;2022-11-02T16:11:09;192.80;;;71.43;;
70414;SDS011;57837;52.064;113.478;2022-11-02T16:14:16;205.13;;;80.90;;
70414;SDS011;57837;52.064;113.478;2022-11-02T16:17:21;215.13;;;86.15;;
70414;SDS011;57837;52.064;113.478;2022-11-02T16:20:27;244.82;;;88.63;;
70414;SDS011;57837;52.064;113.478;2022-11-02T16:23:33;190.70;;;67.70;;
70414;SDS011;57837;52.064;113.478;2022-11-02T16:26:40;176.75;;;70.82;;
70414;SDS011;57837;52.064;113.478;2022-11-02T16:29:44;161.93;;;61.80;;
70414;SDS011;57837;52.064;113.478;2022-11-02T16:32:50;443.33;;;161.93;;
70414;SDS011;57837;52.064;113.478;2022-11-02T16:36:00;305.73;;;105.50;;
70414;SDS011;57837;52.064;113.478;2022-11-02T16:42:21;218.32;;;78.05;;
70414;SDS011;57837;52.064;113.478;2022-11-02T16:45:31;347.02;;;118.75;;
70414;SDS011;57837;52.064;113.478;2022-11-02T16:52:31;352.90;;;127.68;;
70414;SDS011;57837;52.064;113.478;2022-11-02T16:55:40;140.73;;;55.77;;
70414;SDS011;57837;52.064;113.478;2022-11-02T16:58:47;263.65;;;91.30;;
70414;SDS011;57837;52.064;113.478;2022-11-02T17:01:55;218.57;;;87.80;;
70414;SDS011;57837;52.064;113.478;2022-11-02T17:05:02;316.70;;;108.70;;
70414;SDS011;57837;52.064;113.478;2022-11-02T17:11:32;270.88;;;95.00;;
70414;SDS011;57837;52.064;113.478;2022-11-02T17:14:38;238.95;;;82.95;;
70414;SDS011;57837;52.064;113.478;2022-11-02T17:17:43;231.65;;;81.10;;
70414;SDS011;57837;52.064;113.478;2022-11-02T17:20:47;248.60;;;80.78;;
70414;SDS011;57837;52.064;113.478;2022-11-02T17:24:25;186.20;;;65.88;;
70414;SDS011;57837;52.064;113.478;2022-11-02T17:27:34;265.50;;;91.80;;
70414;SDS011;57837;52.064;113.478;2022-11-02T17:30:43;314.88;;;99.47;;
70414;SDS011;57837;52.064;113.478;2022-11-02T17:33:48;305.42;;;98.15;;
70414;SDS011;57837;52.064;113.478;2022-11-02T17:36:52;149.00;;;60.57;;
70414;SDS011;57837;52.064;113.478;2022-11-02T17:40:00;312.52;;;108.80;;
70414;SDS011;57837;52.064;113.478;2022-11-02T17:43:04;279.63;;;96.28;;
70414;SDS011;57837;52.064;113.478;2022-11-02T17:46:08;139.90;;;49.17;;
70414;SDS011;57837;52.064;113.478;2022-11-02T17:49:11;212.90;;;74.28;;
70414;SDS011;57837;52.064;113.478;2022-11-02T17:52:15;259.77;;;88.07;;
70414;SDS011;57837;52.064;113.478;2022-11-02T17:55:19;248.80;;;91.63;;
70414;SDS011;57837;52.064;113.478;2022-11-02T17:58:25;302.47;;;100.67;;
70414;SDS011;57837;52.064;113.478;2022-11-02T18:01:29;232.90;;;85.18;;
70414;SDS011;57837;52.064;113.478;2022-11-02T18:04:33;277.33;;;99.53;;
70414;SDS011;57837;52.064;113.478;2022-11-02T18:07:37;225.70;;;79.70;;
70414;SDS011;57837;52.064;113.478;2022-11-02T18:10:41;260.50;;;86.47;;
70414;SDS011;57837;52.064;113.478;2022-11-02T18:13:46;277.55;;;100.07;;
70414;SDS011;57837;52.064;113.478;2022-11-02T18:16:50;265.20;;;90.03;;
70414;SDS011;57837;52.064;113.478;2022-11-02T18:19:54;252.93;;;90.03;;
70414;SDS011;57837;52.064;113.478;2022-11-02T18:22:58;240.43;;;80.82;;
70414;SDS011;57837;52.064;113.478;2022-11-02T18:26:03;267.45;;;85.07;;
70414;SDS011;57837;52.064;113.478;2022-11-02T18:29:06;254.30;;;93.57;;
70414;SDS011;57837;52.064;113.478;2022-11-02T18:32:09;262.10;;;89.80;;
70414;SDS011;57837;52.064;113.478;2022-11-02T18:35:17;217.05;;;77.78;;
70414;SDS011;57837;52.064;113.478;2022-11-02T18:38:21;224.00;;;71.97;;
70414;SDS011;57837;52.064;113.478;2022-11-02T18:41:25;249.50;;;82.80;;
70414;SDS011;57837;52.064;113.478;2022-11-02T18:44:32;214.40;;;76.10;;
70414;SDS011;57837;52.064;113.478;2022-11-02T18:47:36;109.55;;;44.28;;
70414;SDS011;57837;52.064;113.478;2022-11-02T18:50:40;157.30;;;59.42;;
70414;SDS011;57837;52.064;113.478;2022-11-02T18:53:43;142.07;;;54.38;;
70414;SDS011;57837;52.064;113.478;2022-11-02T18:56:46;169.68;;;61.50;;
70414;SDS011;57837;52.064;113.478;2022-11-02T18:59:50;99.73;;;34.33;;
70414;SDS011;57837;52.064;113.478;2022-11-02T19:02:53;126.32;;;43.30;;
70414;SDS011;57837;52.064;113.478;2022-11-02T19:05:59;138.00;;;47.35;;
70414;SDS011;57837;52.064;113.478;2022-11-02T19:09:22;98.67;;;34.40;;
70414;SDS011;57837;52.064;113.478;2022-11-02T19:12:27;100.80;;;35.90;;
70414;SDS011;57837;52.064;113.478;2022-11-02T19:15:30;152.23;;;53.10;;
70414;SDS011;57837;52.064;113.478;2022-11-02T19:18:43;122.90;;;44.58;;
70414;SDS011;57837;52.064;113.478;2022-11-02T19:21:47;122.53;;;43.50;;
70414;SDS011;57837;52.064;113.478;2022-11-02T19:24:51;57.38;;;22.08;;
70414;SDS011;57837;52.064;113.478;2022-11-02T19:27:54;91.60;;;34.90;;
70414;SDS011;57837;52.064;113.478;2022-11-02T19:30:57;55.50;;;20.20;;
70414;SDS011;57837;52.064;113.478;2022-11-02T19:34:01;105.10;;;34.10;;
70414;SDS011;57837;52.064;113.478;2022-11-02T19:37:05;101.82;;;40.38;;
70414;SDS011;57837;52.064;113.478;2022-11-02T19:40:10;105.43;;;36.17;;
70414;SDS011;57837;52.064;113.478;2022-11-02T19:43:13;114.75;;;43.60;;
70414;SDS011;57837;52.064;113.478;2022-11-02T19:46:17;93.88;;;34.85;;
70414;SDS011;57837;52.064;113.478;2022-11-02T19:49:21;141.15;;;51.17;;
70414;SDS011;57837;52.064;113.478;2022-11-02T19:52:26;91.88;;;39.05;;
70414;SDS011;57837;52.064;113.478;2022-11-02T19:55:30;129.43;;;47.25;;
70414;SDS011;57837;52.064;113.478;2022-11-02T19:58:33;86.95;;;32.65;;
70414;SDS011;57837;52.064;113.478;2022-11-02T20:01:37;143.60;;;50.50;;
70414;SDS011;57837;52.064;113.478;2022-11-02T20:04:42;97.13;;;36.75;;
70414;SDS011;57837;52.064;113.478;2022-11-02T20:07:46;120.65;;;44.90;;